Meteo Giornale » Osservazioni meteo Italia » Genova-Sestri

ore: 00:50 - Osservazioni Meteo Genova-Sestri
Lat. 44° 25' N Lon. 8° 51' E Alt. 2 metri s.l.m.

nuvoloso Europe/Rome

14 °C

Nuvoloso

Temp. 24 Ore

13 °C

14 °C

Nord

37 Km/h

Dew point -5 °C

Umidità 26 %

Visibilità  10 Km

Il sole sorge alle ore 07:05

Il sole tramonta alle ore 18:09

Data e Ora Cielo e Fenomeni T °C DP °C Um. % Pres. hPa Vis. km Vento km/h
Oggi h: 00:50 nuvoloso Nuvoloso 14 -5 26 1009 10 N 37
Oggi h: 00:20 nuvoloso Nuvoloso 13 -4 30 1008 10 N 37
Ieri h: 23:20 nuvoloso Nuvoloso 13 -1 37 1008 10 N/NE 29.6
Ieri h: 22:50 nuvoloso Nuvoloso 13 2 47 1009 9 N/NE 29.6
Ieri h: 22:20 nuvoloso Nuvoloso 13 7 66 1008 9 NE 13
Ieri h: 21:50 coperto_temporali Temporale 13 8 71 1008 9 NE 11.1
Ieri h: 21:20 coperto_temporali Temporale 14 8 67 1008 9 N/NE 13
Ieri h: 20:50 coperto_pioggia Pioviggine Leggera 13 9 76 1007 9 N 5.5
Ieri h: 20:20 coperto_pioggia Pioviggine Leggera 13 10 81 1007 9 E/NE 9.3
Ieri h: 19:50 nuvoloso Nuvoloso 14 12 87 1007 10 N 5.5
Ieri h: 19:20 nuvoloso Nuvoloso 14 12 87 1006 10 E 11.1
Ieri h: 18:50 nuvoloso Nuvoloso 13 11 87 1006 10 E 11.1
Ieri h: 18:20 nuvoloso Nuvoloso 13 12 93 1005 10 E 13
Ieri h: 17:50 molto_nuvoloso Molto Nuvoloso 14 12 87 1006 10 E/SE 14.8
Ieri h: 17:20 molto_nuvoloso Molto Nuvoloso 14 12 87 1005 10 E/SE 18.5
Ieri h: 16:50 molto_nuvoloso Molto Nuvoloso 14 12 87 1005 9 E/SE 20.3
Ieri h: 16:20 molto_nuvoloso Molto Nuvoloso 14 12 87 1005 9 E/SE 20.3
Ieri h: 15:50 molto_nuvoloso Molto Nuvoloso 14 12 87 1006 9 E/SE 16.7
Ieri h: 15:20 molto_nuvoloso Molto Nuvoloso 14 12 87 1006 9 E 16.7
Ieri h: 14:50 molto_nuvoloso Molto Nuvoloso 14 12 87 1006 9 SE 25.9
Ieri h: 14:20 molto_nuvoloso Molto Nuvoloso 14 12 87 1006 9 E/SE 25.9
Ieri h: 13:20 molto_nuvoloso Molto Nuvoloso 14 12 87 1006 10 SE 24
Ieri h: 12:50 molto_nuvoloso Molto Nuvoloso 14 12 87 1007 10 SE 24
Ieri h: 12:20 molto_nuvoloso Molto Nuvoloso 14 12 87 1007 10 SE 25.9
Ieri h: 11:50 molto_nuvoloso Molto Nuvoloso 14 12 87 1007 10 SE 22.2
Ieri h: 11:20 molto_nuvoloso Molto Nuvoloso 14 12 87 1007 10 SE 22.2
Ieri h: 10:50 molto_nuvoloso Molto Nuvoloso 14 12 87 1008 10 SE 22.2
Ieri h: 10:20 molto_nuvoloso Molto Nuvoloso 14 12 87 1008 10 SE 20.3
Ieri h: 09:50 molto_nuvoloso Molto Nuvoloso 14 12 87 1008 10 SE 24
Ieri h: 09:20 molto_nuvoloso Molto Nuvoloso 14 12 87 1008 10 SE 27.8
Ieri h: 08:20 molto_nuvoloso Molto Nuvoloso 14 12 87 1008 10 SE 24
Ieri h: 07:50 molto_nuvoloso Molto Nuvoloso 14 12 87 1008 10 SE 25.9
Ieri h: 07:20 molto_nuvoloso Molto Nuvoloso 14 12 87 1008 10 SE 25.9
Ieri h: 06:50 molto_nuvoloso Molto Nuvoloso 14 12 87 1008 10 SE 25.9
Ieri h: 06:20 molto_nuvoloso Molto Nuvoloso 14 12 87 1009 10 SE 27.8
Ieri h: 05:50 molto_nuvoloso Molto Nuvoloso 14 12 87 1009 10 SE 25.9
Ieri h: 05:20 molto_nuvoloso Molto Nuvoloso 14 12 87 1010 10 SE 27.8
Ieri h: 04:50 molto_nuvoloso Molto Nuvoloso 14 12 87 1010 10 SE 25.9
Ieri h: 04:20 molto_nuvoloso Molto Nuvoloso 14 12 87 1010 10 SE 27.8
Ieri h: 03:50 molto_nuvoloso Molto Nuvoloso 14 12 87 1010 10 SE 27.8
Ieri h: 03:20 molto_nuvoloso Molto Nuvoloso 14 12 87 1011 10 E/SE 29.6
Ieri h: 02:20 molto_nuvoloso Molto Nuvoloso 14 11 82 1011 10 SE 29.6
Ieri h: 01:50 molto_nuvoloso Molto Nuvoloso 14 12 87 1011 10 SE 29.6
Ieri h: 01:20 molto_nuvoloso Molto Nuvoloso 14 12 87 1012 10 E/SE 31.5
Ieri h: 00:50 molto_nuvoloso Molto Nuvoloso 14 12 87 1012 10 E/SE 31.5